Time;durP1;ratioP1;P1;durP2;ratioP2;P2;SDS_P1;SDS_P2;PMS_P1;PMS_P2;Temp;Humidity;BMP_temperature;BMP_pressure;BME280_temperature;BME280_humidity;BME280_pressure;Samples;Min_cycle;Max_cycle;Signal;HPM_P1;HPM_P2
2022/11/13 00:00:56;;;;;;;28.83;20.35;;;7.70;99.90;;;;;;4991366;28;20088;-77
2022/11/13 00:03:22;;;;;;;30.63;20.73;;;7.40;99.90;;;;;;4991009;28;20046;-76
2022/11/13 00:05:48;;;;;;;36.15;25.08;;;7.40;99.90;;;;;;4991180;28;20042;-77
2022/11/13 00:08:13;;;;;;;34.45;25.02;;;7.50;99.90;;;;;;4991330;28;20121;-77
2022/11/13 00:10:39;;;;;;;29.63;21.70;;;7.50;99.90;;;;;;4991275;28;20072;-76
2022/11/13 00:13:04;;;;;;;29.65;21.45;;;7.50;99.90;;;;;;4991274;28;20041;-77
2022/11/13 00:15:30;;;;;;;31.63;21.45;;;7.40;99.90;;;;;;4975013;28;20042;-76
2022/11/13 00:17:59;;;;;;;31.70;21.25;;;7.40;99.90;;;;;;4991173;28;20121;-76
2022/11/13 00:20:25;;;;;;;27.60;19.73;;;7.60;99.90;;;;;;4990897;28;20123;-76
2022/11/13 00:22:50;;;;;;;24.33;19.42;;;7.60;99.90;;;;;;4990726;28;20324;-77
2022/11/13 00:25:16;;;;;;;26.75;19.83;;;7.60;99.90;;;;;;4990834;28;20038;-76
2022/11/13 00:27:41;;;;;;;24.30;20.35;;;7.60;99.90;;;;;;4991202;28;20057;-77
2022/11/13 00:30:08;;;;;;;29.48;20.45;;;7.60;99.90;;;;;;4990923;28;20046;-76
2022/11/13 00:32:33;;;;;;;24.92;18.75;;;7.60;99.90;;;;;;4990606;28;20567;-76
2022/11/13 00:34:58;;;;;;;25.58;19.58;;;7.50;99.90;;;;;;4991133;28;20099;-76
2022/11/13 00:37:24;;;;;;;25.80;19.73;;;7.60;99.90;;;;;;4990863;28;20172;-77
2022/11/13 00:39:49;;;;;;;29.10;20.17;;;7.50;99.90;;;;;;4991091;28;20071;-77
2022/11/13 00:42:15;;;;;;;24.63;19.00;;;7.30;99.90;;;;;;4990988;28;20362;-76
2022/11/13 00:44:41;;;;;;;23.20;17.55;;;7.50;99.90;;;;;;4990711;28;20050;-77
2022/11/13 00:47:06;;;;;;;27.55;19.13;;;7.40;99.90;;;;;;4974703;28;20129;-76
2022/11/13 00:49:32;;;;;;;27.65;20.45;;;7.60;99.90;;;;;;4990841;28;20073;-77
2022/11/13 00:51:59;;;;;;;23.73;17.98;;;7.60;99.90;;;;;;4990743;28;20042;-76
2022/11/13 00:54:24;;;;;;;25.58;19.10;;;7.60;99.90;;;;;;4990555;28;20085;-77
2022/11/13 00:56:50;;;;;;;28.02;19.45;;;7.50;99.90;;;;;;4994446;28;20520;-77
2022/11/13 00:59:15;;;;;;;24.77;19.27;;;7.60;99.90;;;;;;4995963;28;20034;-77
2022/11/13 01:01:41;;;;;;;26.83;18.75;;;7.60;99.90;;;;;;4994734;28;20046;-77
2022/11/13 01:04:06;;;;;;;25.42;18.17;;;7.80;99.90;;;;;;4994122;28;20045;-76
2022/11/13 01:06:32;;;;;;;25.17;17.75;;;7.60;99.90;;;;;;4994614;28;20046;-76
2022/11/13 01:08:58;;;;;;;25.05;16.60;;;7.60;99.90;;;;;;4994325;28;20038;-77
2022/11/13 01:11:26;;;;;;;25.85;16.92;;;7.80;99.90;;;;;;4994566;28;20121;-76
2022/11/13 01:13:52;;;;;;;23.95;17.20;;;7.70;99.90;;;;;;4994099;28;20054;-76
2022/11/13 01:16:20;;;;;;;26.52;18.98;;;7.80;99.90;;;;;;4994616;28;20046;-77
2022/11/13 01:18:46;;;;;;;22.52;18.30;;;7.70;99.90;;;;;;4994534;28;20038;-76
2022/11/13 01:21:15;;;;;;;23.58;19.00;;;7.80;99.90;;;;;;4994433;28;20050;-77
2022/11/13 01:23:41;;;;;;;22.25;17.50;;;7.70;99.90;;;;;;4993852;28;20054;-77
2022/11/13 01:26:19;;;;;;;23.67;18.15;;;7.80;99.90;;;;;;4994111;28;20031;-76
2022/11/13 01:28:45;;;;;;;21.63;16.45;;;7.90;99.90;;;;;;4994488;28;20045;-76
2022/11/13 01:31:15;;;;;;;23.92;18.77;;;7.80;99.90;;;;;;4993791;28;20104;-76
2022/11/13 01:33:41;;;;;;;25.95;16.95;;;7.80;99.90;;;;;;4994159;28;20073;-76
2022/11/13 01:36:13;;;;;;;22.38;16.35;;;7.80;99.90;;;;;;4994004;28;20046;-77
2022/11/13 01:38:38;;;;;;;23.17;16.65;;;7.70;99.90;;;;;;4977820;28;20599;-75
2022/11/13 01:41:05;;;;;;;20.55;15.95;;;7.70;99.90;;;;;;4994114;28;20129;-76
2022/11/13 01:43:37;;;;;;;27.63;18.13;;;7.90;99.90;;;;;;4993609;28;20060;-77
2022/11/13 01:46:14;;;;;;;24.65;17.25;;;7.80;99.90;;;;;;4994642;28;20046;-77
2022/11/13 01:49:05;;;;;;;25.00;17.98;;;7.70;99.90;;;;;;4996131;28;20476;-77
2022/11/13 01:51:34;;;;;;;24.95;18.67;;;7.70;99.90;;;;;;4969171;28;20042;-77
2022/11/13 01:54:03;;;;;;;24.70;19.42;;;7.70;99.90;;;;;;4995809;28;20042;-76
2022/11/13 01:56:29;;;;;;;26.80;19.50;;;7.80;99.90;;;;;;4994331;28;20138;-76
2022/11/13 01:59:05;;;;;;;25.05;18.30;;;7.80;99.90;;;;;;4993920;28;20574;-75
2022/11/13 02:01:31;;;;;;;21.42;16.30;;;7.80;99.90;;;;;;4993931;28;20065;-76
2022/11/13 02:03:57;;;;;;;24.85;17.15;;;7.70;99.90;;;;;;4993220;28;20050;-77
2022/11/13 02:06:24;;;;;;;23.60;17.05;;;7.70;99.90;;;;;;4993415;28;20038;-77
2022/11/13 02:08:50;;;;;;;23.58;16.58;;;7.70;99.90;;;;;;4993097;28;20584;-77
2022/11/13 02:11:16;;;;;;;21.73;16.83;;;7.60;99.90;;;;;;4993337;28;20038;-76
2022/11/13 02:13:43;;;;;;;26.08;18.65;;;7.80;99.90;;;;;;4993204;28;20050;-77
2022/11/13 02:16:10;;;;;;;22.60;17.55;;;7.90;99.90;;;;;;4993535;28;20057;-77
2022/11/13 02:18:37;;;;;;;27.60;17.63;;;7.80;99.90;;;;;;4993718;28;20397;-77
2022/11/13 02:21:37;;;;;;;22.58;17.40;;;7.90;99.90;;;;;;4993179;28;20046;-77
2022/11/13 02:24:29;;;;;;;22.77;17.42;;;7.90;99.90;;;;;;4982292;28;20050;-77
2022/11/13 02:26:59;;;;;;;26.23;18.20;;;7.90;99.90;;;;;;4993304;28;20042;-77
2022/11/13 02:29:25;;;;;;;26.83;19.70;;;7.90;99.90;;;;;;4992938;28;20042;-77
2022/11/13 02:31:50;;;;;;;27.27;18.98;;;7.80;99.90;;;;;;4993037;28;20041;-77
2022/11/13 02:34:16;;;;;;;29.35;20.05;;;7.90;99.90;;;;;;4993184;28;20042;-77
2022/11/13 02:36:42;;;;;;;30.23;19.27;;;7.80;99.90;;;;;;4993261;28;20527;-77
2022/11/13 02:39:10;;;;;;;28.67;18.98;;;7.60;99.90;;;;;;4994178;28;20034;-77
2022/11/13 02:41:37;;;;;;;26.27;18.70;;;7.60;99.90;;;;;;4992837;28;20390;-76
2022/11/13 02:44:06;;;;;;;23.00;18.00;;;7.80;99.90;;;;;;4992389;28;20046;-76
2022/11/13 02:46:33;;;;;;;24.27;18.17;;;7.60;99.90;;;;;;4992801;28;20050;-77
2022/11/13 02:48:58;;;;;;;24.67;17.35;;;7.60;99.90;;;;;;4992752;28;20034;-76
2022/11/13 02:51:24;;;;;;;26.98;18.25;;;7.80;99.90;;;;;;4992641;28;20408;-76
2022/11/13 02:53:49;;;;;;;31.70;19.50;;;7.60;99.90;;;;;;4992324;28;20060;-77
2022/11/13 02:56:15;;;;;;;22.48;17.48;;;7.60;99.90;;;;;;4992849;28;20085;-76
2022/11/13 02:58:40;;;;;;;29.13;18.50;;;7.70;99.90;;;;;;4992714;28;20038;-77
2022/11/13 03:01:06;;;;;;;22.75;18.10;;;7.60;99.90;;;;;;4992411;28;20551;-77
2022/11/13 03:03:32;;;;;;;29.02;19.17;;;7.70;99.90;;;;;;4992160;28;20046;-77
2022/11/13 03:05:57;;;;;;;31.48;20.48;;;7.70;99.90;;;;;;4992672;28;20042;-77
2022/11/13 03:08:24;;;;;;;29.38;21.00;;;7.70;99.90;;;;;;4992556;28;20125;-76
2022/11/13 03:10:51;;;;;;;35.83;22.60;;;7.70;99.90;;;;;;4992323;28;20039;-77
2022/11/13 03:13:16;;;;;;;30.77;19.90;;;7.70;99.90;;;;;;4992293;28;20049;-77
2022/11/13 03:15:42;;;;;;;28.02;19.08;;;7.60;99.90;;;;;;4992300;28;20038;-77
2022/11/13 03:18:10;;;;;;;31.33;19.92;;;7.70;99.90;;;;;;4991993;28;20038;-77
2022/11/13 03:20:37;;;;;;;30.00;20.10;;;7.50;99.90;;;;;;4991814;28;20101;-77
2022/11/13 03:23:03;;;;;;;29.52;20.60;;;7.60;99.90;;;;;;4991927;28;20038;-77
2022/11/13 03:25:29;;;;;;;26.55;20.40;;;7.60;99.90;;;;;;4992419;28;20057;-77
2022/11/13 03:27:54;;;;;;;24.60;19.63;;;7.60;99.90;;;;;;4992227;28;20042;-77
2022/11/13 03:30:20;;;;;;;26.50;19.42;;;7.50;99.90;;;;;;4992410;28;20042;-77
2022/11/13 03:32:45;;;;;;;27.80;19.88;;;7.50;99.90;;;;;;4991757;28;20173;-76
2022/11/13 03:35:11;;;;;;;28.02;19.00;;;7.60;99.90;;;;;;4992042;28;20069;-75
2022/11/13 03:37:36;;;;;;;26.35;20.23;;;7.60;99.90;;;;;;4991896;28;20093;-77
2022/11/13 03:40:09;;;;;;;28.10;18.45;;;7.60;99.90;;;;;;5109219;27;20384;-76
2022/11/13 03:42:35;;;;;;;24.30;16.85;;;7.50;99.90;;;;;;5107764;28;20089;-76
2022/11/13 03:45:00;;;;;;;26.85;18.38;;;7.40;99.90;;;;;;5107941;28;20097;-76
2022/11/13 03:47:26;;;;;;;23.98;18.63;;;7.30;99.90;;;;;;5107882;28;20122;-76
2022/11/13 03:49:51;;;;;;;25.80;18.98;;;7.40;99.90;;;;;;5107871;28;20044;-76
2022/11/13 03:52:17;;;;;;;26.17;19.20;;;7.40;99.90;;;;;;5107444;28;20040;-76
2022/11/13 03:54:42;;;;;;;27.60;20.02;;;7.30;99.90;;;;;;5107630;28;20042;-76
2022/11/13 03:57:08;;;;;;;27.35;18.58;;;7.40;99.90;;;;;;5107626;28;20047;-76
2022/11/13 03:59:33;;;;;;;26.50;18.35;;;7.40;99.90;;;;;;5107438;28;20035;-77
2022/11/13 04:01:59;;;;;;;23.05;17.95;;;7.40;99.90;;;;;;5107814;28;20040;-77
2022/11/13 04:04:24;;;;;;;28.20;18.70;;;7.00;99.90;;;;;;5107391;28;20035;-77
2022/11/13 04:06:50;;;;;;;23.75;16.75;;;7.20;99.90;;;;;;5107609;28;20039;-76
2022/11/13 04:09:15;;;;;;;23.42;16.00;;;7.20;99.90;;;;;;5129561;22;20051;-74
2022/11/13 04:11:41;;;;;;;22.75;16.33;;;6.90;99.90;;;;;;5086966;28;20049;-73
2022/11/13 04:14:06;;;;;;;22.80;15.98;;;7.20;99.90;;;;;;5086517;28;20497;-74
2022/11/13 04:16:32;;;;;;;27.02;17.63;;;7.10;99.90;;;;;;5087200;28;20040;-73
2022/11/13 04:18:57;;;;;;;23.90;18.27;;;7.20;99.90;;;;;;5086579;28;20101;-73
2022/11/13 04:21:23;;;;;;;26.00;18.92;;;7.30;99.90;;;;;;5086988;28;20032;-73
2022/11/13 04:23:49;;;;;;;31.38;20.70;;;7.10;99.90;;;;;;5088001;28;20032;-74
2022/11/13 04:26:14;;;;;;;25.83;18.10;;;7.20;99.90;;;;;;5087082;28;20033;-74
2022/11/13 04:28:39;;;;;;;26.80;19.70;;;7.30;99.90;;;;;;5087369;28;20044;-73
2022/11/13 04:31:05;;;;;;;26.48;18.58;;;7.20;99.90;;;;;;5086816;28;20076;-73
2022/11/13 04:33:31;;;;;;;23.10;17.55;;;7.20;99.90;;;;;;5086616;28;20131;-73
2022/11/13 04:35:56;;;;;;;24.02;16.58;;;7.00;99.90;;;;;;5086831;28;20062;-73
2022/11/13 04:38:22;;;;;;;22.02;16.17;;;7.20;99.90;;;;;;5087985;28;20052;-73
2022/11/13 04:42:47;;;;;;;22.60;17.02;;;7.20;99.90;;;;;;5087899;28;20035;-73
2022/11/13 04:43:36;;;;;;;20.85;15.40;;;7.00;99.90;;;;;;5087620;28;20048;-73
2022/11/13 04:46:01;;;;;;;23.25;16.77;;;7.00;99.90;;;;;;5088069;28;20043;-73
2022/11/13 04:48:27;;;;;;;23.63;16.67;;;6.90;99.90;;;;;;5086963;28;20048;-73
2022/11/13 04:50:52;;;;;;;23.90;16.90;;;7.20;99.90;;;;;;5076630;28;20044;-73
2022/11/13 04:53:18;;;;;;;23.75;16.73;;;6.90;99.90;;;;;;5074017;28;20040;-73
2022/11/13 04:55:43;;;;;;;19.38;15.73;;;7.20;99.90;;;;;;5073049;28;20082;-73
2022/11/13 04:58:09;;;;;;;20.05;16.55;;;7.20;99.90;;;;;;5074398;28;20045;-73
2022/11/13 05:00:34;;;;;;;21.50;17.00;;;7.20;99.90;;;;;;5074161;28;20434;-73
2022/11/13 05:03:00;;;;;;;23.92;16.70;;;7.10;99.90;;;;;;5073926;28;20044;-73
2022/11/13 05:05:25;;;;;;;21.80;15.77;;;7.10;99.90;;;;;;5074032;28;20047;-73
2022/11/13 05:07:51;;;;;;;22.60;16.15;;;7.10;99.90;;;;;;5074334;28;20043;-73
2022/11/13 05:10:17;;;;;;;21.83;15.73;;;7.10;99.90;;;;;;5074011;28;20040;-73
2022/11/13 05:12:42;;;;;;;18.83;15.40;;;7.10;99.90;;;;;;5073888;28;20056;-73
2022/11/13 05:15:08;;;;;;;21.90;16.67;;;6.90;99.90;;;;;;5074088;28;20043;-74
2022/11/13 05:17:33;;;;;;;20.92;16.10;;;6.90;99.90;;;;;;5072689;28;20072;-73
2022/11/13 05:19:59;;;;;;;20.67;15.25;;;7.00;99.90;;;;;;5073743;28;20119;-74
2022/11/13 05:22:24;;;;;;;23.20;17.42;;;7.00;99.90;;;;;;5073468;28;20043;-73
2022/11/13 05:24:50;;;;;;;20.67;16.63;;;6.70;99.90;;;;;;5074014;28;20040;-74
2022/11/13 05:27:15;;;;;;;20.05;15.32;;;7.00;99.90;;;;;;5073870;28;20044;-74
2022/11/13 05:29:41;;;;;;;20.30;15.85;;;6.70;99.90;;;;;;5072451;28;20044;-73
2022/11/13 05:32:06;;;;;;;21.70;16.40;;;6.90;99.90;;;;;;5073781;28;20119;-74
2022/11/13 05:34:32;;;;;;;24.15;15.93;;;6.90;99.90;;;;;;5072088;28;20409;-73
2022/11/13 05:36:58;;;;;;;22.25;15.43;;;6.80;99.90;;;;;;5073581;28;20469;-74
2022/11/13 05:39:23;;;;;;;23.70;16.08;;;6.80;99.90;;;;;;5073556;28;20051;-73
2022/11/13 05:41:48;;;;;;;22.02;15.93;;;6.70;99.90;;;;;;5072184;28;20032;-73
2022/11/13 05:44:14;;;;;;;20.58;15.00;;;6.60;99.90;;;;;;5072146;28;20036;-74
2022/11/13 05:46:39;;;;;;;20.67;16.00;;;6.70;99.90;;;;;;5072179;28;20028;-74
2022/11/13 05:49:05;;;;;;;20.73;15.10;;;6.60;99.90;;;;;;5071966;28;20044;-74
2022/11/13 05:51:32;;;;;;;20.90;15.68;;;6.40;99.90;;;;;;5071961;28;20047;-74
2022/11/13 05:53:58;;;;;;;23.45;16.05;;;6.40;99.90;;;;;;5071685;28;20044;-74
2022/11/13 05:56:27;;;;;;;20.23;15.40;;;6.70;99.90;;;;;;5055478;28;20155;-73
2022/11/13 05:58:54;;;;;;;19.08;15.60;;;6.40;99.90;;;;;;5073007;28;20083;-74
2022/11/13 06:01:32;;;;;;;21.55;15.05;;;6.60;99.90;;;;;;5071172;28;20036;-74
2022/11/13 06:03:58;;;;;;;22.67;16.15;;;6.60;99.90;;;;;;5071507;28;20086;-74
2022/11/13 06:06:26;;;;;;;21.77;17.38;;;6.30;99.90;;;;;;5071992;28;20056;-74
2022/11/13 06:08:52;;;;;;;21.25;15.80;;;6.40;99.90;;;;;;5071937;28;20425;-73
2022/11/13 06:11:20;;;;;;;23.55;17.00;;;6.50;99.90;;;;;;5072753;28;20441;-74
2022/11/13 06:13:47;;;;;;;24.23;16.23;;;6.40;99.90;;;;;;5071269;28;20049;-74
2022/11/13 06:16:15;;;;;;;23.42;15.90;;;6.40;99.90;;;;;;5071539;28;20131;-74
2022/11/13 06:18:42;;;;;;;28.80;18.33;;;6.30;99.90;;;;;;5071302;28;20048;-74
2022/11/13 06:21:13;;;;;;;22.45;15.73;;;6.30;99.90;;;;;;5071441;28;20552;-74
2022/11/13 06:23:39;;;;;;;19.67;15.35;;;5.90;99.90;;;;;;5071434;28;20037;-74
2022/11/13 06:26:10;;;;;;;24.55;17.00;;;5.90;99.90;;;;;;5071363;28;20033;-74
2022/11/13 06:28:36;;;;;;;21.70;15.75;;;5.90;99.90;;;;;;5054737;28;20048;-74
2022/11/13 06:31:26;;;;;;;23.52;17.60;;;6.10;99.90;;;;;;5071145;28;20051;-74
2022/11/13 06:33:51;;;;;;;21.02;15.98;;;6.10;99.90;;;;;;5070980;28;20040;-74
2022/11/13 06:36:22;;;;;;;24.35;16.33;;;6.10;99.90;;;;;;5071461;28;20494;-74
2022/11/13 06:38:48;;;;;;;25.92;16.23;;;6.20;99.90;;;;;;5071035;28;20102;-74
2022/11/13 06:41:15;;;;;;;21.98;16.58;;;5.90;99.90;;;;;;5071092;28;20036;-74
2022/11/13 06:43:42;;;;;;;23.15;16.55;;;6.30;99.90;;;;;;5071891;28;20043;-74
2022/11/13 06:46:13;;;;;;;20.13;14.43;;;6.10;99.90;;;;;;5072446;28;20040;-73
2022/11/13 06:48:39;;;;;;;21.45;16.25;;;5.90;99.90;;;;;;5071146;28;20490;-73
2022/11/13 06:51:07;;;;;;;20.55;15.35;;;6.00;99.90;;;;;;5071949;28;20120;-73
2022/11/13 06:53:33;;;;;;;23.58;16.00;;;6.00;99.90;;;;;;5071816;28;20513;-73
2022/11/13 06:55:59;;;;;;;26.23;16.90;;;6.20;99.90;;;;;;5071972;28;20040;-73
2022/11/13 06:58:25;;;;;;;22.95;16.73;;;6.20;99.90;;;;;;5071951;28;20044;-73
2022/11/13 07:00:51;;;;;;;20.42;15.75;;;6.00;99.90;;;;;;5071946;28;20036;-73
2022/11/13 07:03:22;;;;;;;24.38;15.90;;;5.80;99.90;;;;;;5070229;28;20494;-74
2022/11/13 07:05:48;;;;;;;21.95;15.48;;;6.10;99.90;;;;;;5070933;28;20068;-73
2022/11/13 07:08:14;;;;;;;21.55;15.88;;;6.10;99.90;;;;;;5070759;28;20109;-74
2022/11/13 07:10:40;;;;;;;19.27;14.48;;;5.90;99.90;;;;;;5070516;28;20044;-74
2022/11/13 07:13:06;;;;;;;22.52;15.98;;;6.00;99.90;;;;;;5070310;28;20127;-73
2022/11/13 07:15:36;;;;;;;21.90;16.13;;;5.90;99.90;;;;;;5070794;28;20132;-73
2022/11/13 07:18:04;;;;;;;20.85;15.80;;;5.80;99.90;;;;;;5071813;28;20050;-74
2022/11/13 07:20:30;;;;;;;20.42;14.52;;;5.90;99.90;;;;;;5053997;28;20146;-74
2022/11/13 07:22:57;;;;;;;20.48;14.27;;;5.80;99.90;;;;;;5070148;28;20063;-74
2022/11/13 07:25:24;;;;;;;20.85;15.82;;;6.10;99.90;;;;;;5070540;28;20094;-74
2022/11/13 07:27:49;;;;;;;20.30;15.45;;;5.90;99.90;;;;;;5070604;28;20040;-74
2022/11/13 07:30:15;;;;;;;19.40;14.05;;;6.00;99.90;;;;;;5070554;28;20406;-74
2022/11/13 07:32:41;;;;;;;20.30;15.75;;;5.80;99.90;;;;;;5070197;28;20032;-74
2022/11/13 07:35:07;;;;;;;22.77;16.48;;;6.00;99.90;;;;;;5071610;28;20120;-74
2022/11/13 07:37:32;;;;;;;20.40;15.43;;;6.20;99.90;;;;;;5070398;28;20043;-74
2022/11/13 07:39:58;;;;;;;22.38;16.30;;;6.30;99.90;;;;;;5070148;28;20135;-74
2022/11/13 07:42:23;;;;;;;22.27;16.23;;;6.00;99.90;;;;;;5071210;28;20516;-74
2022/11/13 07:44:49;;;;;;;19.83;14.07;;;6.20;99.90;;;;;;5071656;28;20037;-74
2022/11/13 07:47:14;;;;;;;20.10;13.80;;;6.20;99.90;;;;;;5071520;28;20514;-74
2022/11/13 07:49:40;;;;;;;20.65;14.35;;;6.50;99.90;;;;;;5071456;28;20060;-74
2022/11/13 07:52:05;;;;;;;19.60;14.15;;;6.50;99.90;;;;;;5070069;28;20435;-74
2022/11/13 07:54:31;;;;;;;19.58;14.10;;;6.70;99.90;;;;;;5069743;28;20040;-74
2022/11/13 07:56:56;;;;;;;18.83;14.95;;;6.80;99.90;;;;;;5071503;28;20047;-74
2022/11/13 07:59:22;;;;;;;17.92;13.80;;;7.00;99.90;;;;;;5071249;28;20041;-74
2022/11/13 08:01:47;;;;;;;19.65;14.20;;;6.90;99.90;;;;;;5071304;28;20052;-73
2022/11/13 08:04:13;;;;;;;19.02;13.93;;;7.20;99.90;;;;;;5070985;28;20033;-74
2022/11/13 08:06:38;;;;;;;20.88;14.30;;;7.30;99.90;;;;;;5069990;28;20098;-74
2022/11/13 08:09:04;;;;;;;19.08;15.13;;;7.40;99.90;;;;;;5069936;28;20144;-74
2022/11/13 08:11:29;;;;;;;19.02;14.18;;;7.20;99.90;;;;;;5071052;28;20036;-74
2022/11/13 08:13:55;;;;;;;20.77;14.30;;;7.30;99.90;;;;;;5069644;28;20074;-74
2022/11/13 08:16:22;;;;;;;19.50;14.70;;;7.30;99.90;;;;;;5052977;28;20132;-74
2022/11/13 08:18:48;;;;;;;19.75;13.75;;;7.30;99.90;;;;;;5049844;28;20383;-74
2022/11/13 08:21:14;;;;;;;20.27;15.05;;;7.30;99.90;;;;;;5049748;28;20087;-74
2022/11/13 08:23:40;;;;;;;19.67;14.60;;;7.00;99.90;;;;;;5049776;28;20041;-74
2022/11/13 08:26:07;;;;;;;18.27;13.27;;;7.10;99.90;;;;;;5052151;28;20037;-74
2022/11/13 08:28:34;;;;;;;17.05;12.75;;;7.10;99.90;;;;;;5053582;28;20479;-74
2022/11/13 08:30:59;;;;;;;19.33;14.35;;;7.20;99.90;;;;;;5053684;28;20407;-74
2022/11/13 08:33:25;;;;;;;21.85;14.63;;;7.20;99.90;;;;;;5053572;28;20033;-74
2022/11/13 08:35:58;;;;;;;21.02;14.57;;;7.20;99.90;;;;;;5036817;28;20044;-74
2022/11/13 08:38:24;;;;;;;20.70;13.93;;;7.30;99.90;;;;;;5053294;28;20048;-75
2022/11/13 08:40:50;;;;;;;18.38;14.50;;;7.40;99.90;;;;;;5056169;28;20078;-74
2022/11/13 08:43:16;;;;;;;17.42;13.57;;;7.50;99.90;;;;;;5067827;28;20029;-74
2022/11/13 08:45:45;;;;;;;18.63;14.25;;;7.30;99.90;;;;;;5071339;28;20040;-75
2022/11/13 08:48:10;;;;;;;17.92;13.43;;;7.50;99.90;;;;;;5061999;28;20033;-75
2022/11/13 08:50:37;;;;;;;19.92;13.35;;;7.60;99.90;;;;;;5067190;28;20035;-75
2022/11/13 08:53:02;;;;;;;21.40;15.07;;;7.40;99.90;;;;;;5062517;28;20048;-75
2022/11/13 08:55:28;;;;;;;17.83;13.38;;;7.50;99.90;;;;;;5063349;28;20032;-75
2022/11/13 08:57:58;;;;;;;16.90;13.35;;;7.60;99.90;;;;;;5062211;28;20055;-75
2022/11/13 09:00:23;;;;;;;17.77;12.93;;;7.60;99.90;;;;;;5053249;28;20103;-73
2022/11/13 09:02:53;;;;;;;18.73;12.32;;;7.70;99.90;;;;;;5073308;28;20033;-75
2022/11/13 09:05:19;;;;;;;17.75;12.90;;;7.90;99.90;;;;;;5072529;28;20044;-74
2022/11/13 09:07:44;;;;;;;17.70;12.77;;;7.90;99.90;;;;;;5072956;28;20059;-75
2022/11/13 09:10:10;;;;;;;18.85;14.98;;;7.90;99.90;;;;;;5073799;28;20040;-75
2022/11/13 09:12:35;;;;;;;18.08;13.32;;;7.80;99.90;;;;;;5073557;28;20028;-76
2022/11/13 09:15:01;;;;;;;17.63;12.85;;;7.90;99.90;;;;;;5073859;28;20041;-76
2022/11/13 09:17:26;;;;;;;16.15;13.23;;;8.00;99.90;;;;;;5073567;28;20041;-77
2022/11/13 09:19:52;;;;;;;17.77;13.35;;;8.10;99.90;;;;;;5072312;28;20045;-77
2022/11/13 09:22:17;;;;;;;17.48;12.52;;;8.00;99.90;;;;;;5072160;28;20037;-76
2022/11/13 09:24:43;;;;;;;16.83;14.15;;;8.10;99.90;;;;;;5073742;28;20085;-76
2022/11/13 09:27:08;;;;;;;17.80;13.02;;;8.20;99.90;;;;;;5073769;28;20699;-75
2022/11/13 09:29:34;;;;;;;16.38;13.63;;;8.20;99.90;;;;;;5073453;28;20098;-76
2022/11/13 09:32:00;;;;;;;17.02;13.65;;;8.30;99.90;;;;;;5072233;28;20033;-73
2022/11/13 09:34:26;;;;;;;16.88;12.77;;;8.30;99.90;;;;;;5072993;28;20043;-74
2022/11/13 09:36:52;;;;;;;19.15;12.65;;;8.50;99.90;;;;;;5072080;28;20118;-74
2022/11/13 09:39:18;;;;;;;19.17;12.98;;;8.50;99.90;;;;;;5073670;28;20072;-74
2022/11/13 09:41:48;;;;;;;17.17;13.80;;;8.50;99.90;;;;;;5073542;28;20108;-74
2022/11/13 09:44:45;;;;;;;17.45;12.55;;;8.50;99.90;;;;;;5073197;28;20068;-73
2022/11/13 09:47:18;;;;;;;16.45;12.85;;;8.70;99.90;;;;;;5061853;28;20052;-74
2022/11/13 09:49:46;;;;;;;;;;;8.70;99.90;;;;;;5073667;28;20386;-74
2022/11/13 09:52:17;;;;;;;14.85;12.10;;;8.80;99.90;;;;;;5072017;28;19958;-75
2022/11/13 09:54:43;;;;;;;19.80;12.32;;;8.70;99.90;;;;;;5072933;28;20045;-74
2022/11/13 09:57:20;;;;;;;16.52;12.70;;;8.90;99.90;;;;;;5072905;28;20040;-74
2022/11/13 09:59:58;;;;;;;15.88;11.82;;;8.80;99.90;;;;;;5072971;28;20118;-74
2022/11/13 10:02:53;;;;;;;17.55;13.27;;;8.90;99.90;;;;;;5072847;28;20045;-74
2022/11/13 10:05:33;;;;;;;15.30;12.60;;;9.00;99.90;;;;;;5072806;28;20146;-75
2022/11/13 10:08:24;;;;;;;16.13;12.95;;;9.00;99.90;;;;;;5071846;28;20041;-74
2022/11/13 10:11:08;;;;;;;18.02;12.55;;;9.00;99.90;;;;;;5071922;28;20406;-74
2022/11/13 10:13:51;;;;;;;20.63;13.90;;;9.20;99.90;;;;;;5071459;28;20040;-74
2022/11/13 10:16:32;;;;;;;28.00;13.50;;;9.30;99.90;;;;;;5071976;28;20108;-74
2022/11/13 10:19:36;;;;;;;15.85;12.45;;;9.30;99.90;;;;;;5071556;28;20049;-74
2022/11/13 10:22:28;;;;;;;;;;;9.30;99.90;;;;;;5065967;28;20045;-75
2022/11/13 10:25:01;;;;;;;16.70;13.30;;;9.30;99.90;;;;;;5048085;28;19927;-75
2022/11/13 10:27:27;;;;;;;19.13;13.25;;;9.40;99.90;;;;;;5063619;28;20032;-75
2022/11/13 10:29:52;;;;;;;16.30;13.48;;;9.50;99.90;;;;;;5061212;28;20086;-74
2022/11/13 10:32:31;;;;;;;17.48;12.38;;;9.60;99.90;;;;;;5062343;28;20529;-74
2022/11/13 10:35:06;;;;;;;16.35;12.82;;;9.60;99.90;;;;;;5070717;28;20091;-74
2022/11/13 10:37:57;;;;;;;16.00;12.40;;;9.60;99.90;;;;;;5070194;28;20170;-75
2022/11/13 10:40:38;;;;;;;17.55;13.95;;;9.70;99.90;;;;;;5067681;28;20406;-75
2022/11/13 10:43:16;;;;;;;15.77;12.38;;;9.80;99.90;;;;;;5053359;28;20115;-76
2022/11/13 10:45:52;;;;;;;18.48;12.70;;;9.80;99.90;;;;;;5070708;28;20032;-75
2022/11/13 10:48:35;;;;;;;15.50;12.50;;;9.80;99.90;;;;;;5070261;28;20090;-75
2022/11/13 10:51:18;;;;;;;15.48;12.10;;;9.80;99.90;;;;;;5070845;28;20151;-76
2022/11/13 10:53:45;;;;;;;14.15;12.10;;;9.80;99.90;;;;;;5053780;28;20532;-75
2022/11/13 10:56:21;;;;;;;18.10;13.10;;;9.90;99.90;;;;;;5070731;28;20067;-75
2022/11/13 10:59:19;;;;;;;16.73;12.77;;;9.90;99.90;;;;;;5070636;28;20051;-74
2022/11/13 11:01:46;;;;;;;17.45;12.70;;;10.00;99.90;;;;;;5037194;28;20520;-74
2022/11/13 11:04:19;;;;;;;16.25;12.48;;;10.10;99.90;;;;;;5053516;28;20037;-73
2022/11/13 11:06:45;;;;;;;15.43;11.90;;;10.20;99.90;;;;;;5070910;28;20078;-74
2022/11/13 11:09:28;;;;;;;16.80;12.18;;;10.30;99.90;;;;;;5070197;28;20493;-75
2022/11/13 11:12:15;;;;;;;;;;;10.40;99.90;;;;;;5054470;28;20036;-74
2022/11/13 11:15:00;;;;;;;17.77;11.65;;;10.40;99.90;;;;;;5070273;28;19920;-76
2022/11/13 11:17:35;;;;;;;13.35;11.20;;;10.50;99.90;;;;;;5070371;28;20115;-76
2022/11/13 11:20:09;;;;;;;13.55;11.15;;;10.60;99.90;;;;;;5070048;28;20045;-74
2022/11/13 11:22:37;;;;;;;16.27;12.48;;;10.60;99.90;;;;;;5053189;28;20040;-75
2022/11/13 11:25:18;;;;;;;14.65;12.32;;;10.70;99.90;;;;;;5070246;28;20036;-75
2022/11/13 11:27:54;;;;;;;15.63;12.60;;;10.70;99.90;;;;;;5066599;28;20036;-75
2022/11/13 11:30:25;;;;;;;16.52;12.25;;;10.80;99.90;;;;;;5069120;28;20032;-75
2022/11/13 11:33:03;;;;;;;15.55;11.80;;;10.80;99.90;;;;;;5070134;28;20047;-75
2022/11/13 11:35:52;;;;;;;14.52;11.35;;;10.90;99.90;;;;;;5070220;28;20036;-75
2022/11/13 11:38:39;;;;;;;16.25;12.25;;;11.00;99.90;;;;;;5070048;28;20182;-75
2022/11/13 11:41:13;;;;;;;14.90;10.93;;;11.00;99.90;;;;;;5070108;28;20047;-75
2022/11/13 11:43:46;;;;;;;13.57;11.02;;;11.00;99.90;;;;;;5070810;28;20534;-75
2022/11/13 11:46:13;;;;;;;15.52;11.32;;;11.10;99.90;;;;;;5070341;28;20037;-75
2022/11/13 11:48:39;;;;;;;13.05;10.30;;;11.20;99.90;;;;;;5069931;28;20048;-75
2022/11/13 11:51:42;;;;;;;15.50;12.18;;;11.30;99.90;;;;;;5070042;28;20032;-75
2022/11/13 11:54:24;;;;;;;12.13;10.00;;;11.30;99.90;;;;;;5069510;28;20047;-75
2022/11/13 11:56:58;;;;;;;13.88;10.48;;;11.40;99.90;;;;;;5070213;28;20510;-75
2022/11/13 11:59:50;;;;;;;11.75;9.73;;;11.40;99.90;;;;;;5070981;28;20124;-75
2022/11/13 12:02:45;;;;;;;14.32;10.15;;;11.50;99.90;;;;;;5068935;28;20104;-75
2022/11/13 12:05:26;;;;;;;12.68;9.73;;;11.50;99.90;;;;;;5055302;28;20120;-75
2022/11/13 12:08:29;;;;;;;11.55;9.52;;;11.60;99.90;;;;;;5053520;28;20041;-74
2022/11/13 12:11:21;;;;;;;11.73;9.68;;;11.60;99.90;;;;;;5054968;28;20040;-75
2022/11/13 12:14:06;;;;;;;12.02;9.52;;;11.70;99.90;;;;;;5037253;28;20037;-75
2022/11/13 12:16:55;;;;;;;13.18;9.90;;;11.70;99.90;;;;;;5053916;28;20037;-75
2022/11/13 12:19:50;;;;;;;12.32;9.68;;;11.70;99.90;;;;;;5055145;28;20041;-75
2022/11/13 12:22:39;;;;;;;13.40;10.70;;;11.70;99.90;;;;;;5055109;28;20410;-74
2022/11/13 12:25:28;;;;;;;12.10;9.95;;;11.80;99.90;;;;;;5054785;28;20499;-74
2022/11/13 12:28:08;;;;;;;11.77;9.45;;;11.80;99.90;;;;;;5053982;28;20041;-74
2022/11/13 12:30:52;;;;;;;11.98;9.55;;;11.90;99.90;;;;;;5054147;28;20106;-74
2022/11/13 12:33:27;;;;;;;12.18;10.30;;;11.90;99.90;;;;;;5053535;28;20399;-73
2022/11/13 12:35:53;;;;;;;10.43;9.13;;;12.00;99.90;;;;;;5053538;28;20098;-74
2022/11/13 12:38:44;;;;;;;9.98;8.98;;;12.10;99.90;;;;;;5053291;28;20037;-73
2022/11/13 12:41:28;;;;;;;11.18;9.07;;;12.10;99.90;;;;;;5036598;28;20036;-74
2022/11/13 12:44:19;;;;;;;12.27;9.52;;;12.10;99.90;;;;;;5036344;28;20037;-74
2022/11/13 12:46:46;;;;;;;12.07;9.40;;;12.10;99.90;;;;;;5053325;28;20033;-74
2022/11/13 12:49:28;;;;;;;11.00;8.90;;;12.10;99.90;;;;;;5053278;28;20041;-75
2022/11/13 12:52:21;;;;;;;10.80;8.27;;;12.20;99.90;;;;;;5053327;28;20765;-75